Time;durP1;ratioP1;P1;durP2;ratioP2;P2;SDS_P1;SDS_P2;PMS_P1;PMS_P2;Temp;Humidity;BMP_temperature;BMP_pressure;BME280_temperature;BME280_humidity;BME280_pressure;Samples;Min_cycle;Max_cycle;Signal;HPM_P1;HPM_P2
2022/10/11 00:00:55;;;;;;;21.55;14.82;;;;;;;12.43;100.00;93724.34;5070776;28;20056;-74
2022/10/11 00:03:22;;;;;;;25.48;15.05;;;;;;;12.37;100.00;93724.38;5071028;28;20052;-74
2022/10/11 00:05:48;;;;;;;19.40;14.23;;;;;;;12.38;100.00;93731.88;5070930;28;20048;-74
2022/10/11 00:08:16;;;;;;;21.27;14.65;;;;;;;12.39;100.00;93730.88;5070828;28;20452;-74
2022/10/11 00:10:42;;;;;;;21.42;14.52;;;;;;;12.38;100.00;93739.63;5070795;28;20086;-74
2022/10/11 00:13:09;;;;;;;19.45;13.48;;;;;;;12.36;100.00;93731.28;5070719;28;20097;-73
2022/10/11 00:15:36;;;;;;;18.45;13.85;;;;;;;12.24;100.00;93720.06;5070487;28;20398;-74
2022/10/11 00:18:04;;;;;;;16.08;11.55;;;;;;;12.30;100.00;93734.69;5070477;28;20044;-73
2022/10/11 00:20:31;;;;;;;16.58;12.20;;;;;;;12.31;100.00;93733.69;5070362;28;20048;-73
2022/10/11 00:22:57;;;;;;;16.05;12.02;;;;;;;12.28;100.00;93728.97;5070350;28;20045;-73
2022/10/11 00:25:24;;;;;;;19.40;13.40;;;;;;;12.26;100.00;93731.75;5070663;28;20110;-73
2022/10/11 00:27:51;;;;;;;16.75;12.85;;;;;;;12.22;100.00;93725.44;5070293;28;20044;-73
2022/10/11 00:30:18;;;;;;;14.00;11.15;;;;;;;12.16;100.00;93721.09;5070581;28;20105;-73
2022/10/11 00:32:44;;;;;;;15.90;12.40;;;;;;;12.22;100.00;93733.16;5070552;28;20048;-73
2022/10/11 00:35:13;;;;;;;16.98;13.15;;;;;;;12.21;100.00;93734.16;5070174;28;20573;-73
2022/10/11 00:37:40;;;;;;;15.75;12.02;;;;;;;12.18;100.00;93726.06;5070534;28;20045;-73
2022/10/11 00:40:10;;;;;;;13.02;11.10;;;;;;;11.93;100.00;93698.44;5070467;28;20056;-73
2022/10/11 00:42:37;;;;;;;16.35;11.65;;;;;;;12.01;100.00;93719.59;5070277;28;20044;-73
2022/10/11 00:45:52;;;;;;;14.30;11.20;;;;;;;12.00;100.00;93720.56;5069081;28;20509;-73
2022/10/11 00:48:22;;;;;;;13.00;11.10;;;;;;;11.92;100.00;93717.44;5070140;28;20089;-73
2022/10/11 00:50:51;;;;;;;14.07;11.88;;;;;;;11.88;100.00;93719.63;5070189;28;20469;-73
2022/10/11 00:53:17;;;;;;;18.55;12.13;;;;;;;11.78;100.00;93717.50;5070183;28;20067;-73
2022/10/11 00:55:51;;;;;;;18.73;12.98;;;;;;;11.55;100.00;93702.53;5069981;28;20052;-73
2022/10/11 00:58:21;;;;;;;14.57;12.25;;;;;;;11.66;100.00;93708.84;5070013;28;21202;-73
2022/10/11 01:00:48;;;;;;;16.17;13.32;;;;;;;11.67;100.00;93721.47;5069974;28;20459;-73
2022/10/11 01:03:15;;;;;;;13.98;12.10;;;;;;;11.70;100.00;93720.28;5066428;28;20504;-74
2022/10/11 01:05:42;;;;;;;16.45;12.15;;;;;;;11.70;100.00;93712.56;5052234;28;20091;-73
2022/10/11 01:08:11;;;;;;;16.30;13.02;;;;;;;11.70;100.00;93715.94;5047727;28;20041;-74
2022/10/11 01:10:38;;;;;;;19.38;13.65;;;;;;;11.63;100.00;93710.03;5048246;28;20095;-74
2022/10/11 01:13:14;;;;;;;17.48;13.75;;;;;;;11.63;100.00;93710.81;5048120;28;20056;-73
2022/10/11 01:15:49;;;;;;;16.88;13.82;;;;;;;11.55;100.00;93717.97;5066533;28;20094;-74
2022/10/11 01:18:23;;;;;;;15.95;13.02;;;;;;;11.57;100.00;93711.63;5068056;28;20484;-74
2022/10/11 01:20:56;;;;;;;16.63;12.65;;;;;;;11.48;100.00;93697.41;5051113;28;20041;-73
2022/10/11 01:23:59;;;;;;;17.42;13.20;;;;;;;11.59;100.00;93708.84;5048146;28;20082;-73
2022/10/11 01:26:49;;;;;;;20.70;12.35;;;;;;;11.54;100.00;93706.09;5067088;28;20094;-74
2022/10/11 01:29:29;;;;;;;14.73;12.73;;;;;;;11.53;100.00;93701.94;5051023;28;20098;-74
2022/10/11 01:32:06;;;;;;;16.20;12.73;;;;;;;11.49;100.00;93710.06;5068257;28;20117;-74
2022/10/11 01:34:39;;;;;;;14.38;12.88;;;;;;;11.41;100.00;93702.56;5067858;28;20040;-73
2022/10/11 01:37:12;;;;;;;17.48;13.48;;;;;;;11.44;100.00;93691.09;5067729;28;20049;-73
2022/10/11 01:39:43;;;;;;;14.88;12.10;;;;;;;11.38;100.00;93697.81;5067907;28;20573;-73
2022/10/11 01:42:13;;;;;;;13.68;12.25;;;;;;;11.32;100.00;93690.91;5068037;28;20090;-74
2022/10/11 01:44:43;;;;;;;16.35;12.00;;;;;;;11.26;100.00;93684.00;5068010;28;20044;-74
2022/10/11 01:47:11;;;;;;;17.27;12.73;;;;;;;11.19;100.00;93684.81;5067892;28;20461;-74
2022/10/11 01:49:37;;;;;;;13.93;12.43;;;;;;;11.29;100.00;93699.06;5068325;28;20106;-74
2022/10/11 01:52:07;;;;;;;13.90;11.43;;;;;;;11.24;100.00;93699.63;5067980;28;20504;-73
2022/10/11 01:54:49;;;;;;;18.05;13.15;;;;;;;11.26;100.00;93696.88;5067624;28;20637;-74
2022/10/11 01:57:48;;;;;;;13.70;11.60;;;;;;;11.23;100.00;93690.34;5067652;28;20040;-73
2022/10/11 02:00:18;;;;;;;14.27;12.18;;;;;;;11.21;100.00;93689.78;5046013;28;20047;-73
2022/10/11 02:03:09;;;;;;;16.77;12.00;;;;;;;11.21;100.00;93695.69;5047046;28;20447;-74
2022/10/11 02:05:42;;;;;;;13.13;11.50;;;;;;;11.14;100.00;93683.81;5064957;28;20507;-73
2022/10/11 02:08:17;;;;;;;15.18;11.48;;;;;;;11.16;100.00;93690.34;5067682;28;20044;-72
2022/10/11 02:10:50;;;;;;;13.18;11.40;;;;;;;11.15;100.00;93693.16;5067649;28;20070;-72
2022/10/11 02:13:22;;;;;;;15.45;12.45;;;;;;;11.13;100.00;93684.81;5067534;28;20487;-72
2022/10/11 02:15:50;;;;;;;16.05;12.00;;;;;;;11.08;100.00;93693.91;5067619;28;20048;-72
2022/10/11 02:18:22;;;;;;;14.40;12.13;;;;;;;11.01;100.00;93676.94;5067688;28;20044;-73
2022/10/11 02:20:51;;;;;;;15.13;12.57;;;;;;;11.06;100.00;93682.28;5067580;28;20056;-73
2022/10/11 02:23:22;;;;;;;17.20;12.88;;;;;;;11.05;100.00;93681.47;5067418;28;20492;-73
2022/10/11 02:25:50;;;;;;;16.08;12.68;;;;;;;11.07;100.00;93683.84;5067025;28;20056;-73
2022/10/11 02:28:23;;;;;;;14.38;12.20;;;;;;;11.07;100.00;93684.63;5067721;28;20118;-72
2022/10/11 02:30:52;;;;;;;17.40;13.13;;;;;;;11.08;100.00;93681.06;5067286;28;20045;-72
2022/10/11 02:33:24;;;;;;;15.27;12.35;;;;;;;11.07;100.00;93684.63;5067735;28;20111;-72
2022/10/11 02:35:58;;;;;;;16.45;13.05;;;;;;;11.04;100.00;93682.47;5068062;28;20090;-72
2022/10/11 02:38:27;;;;;;;16.10;12.48;;;;;;;11.03;100.00;93682.69;5068428;28;20122;-72
2022/10/11 02:40:58;;;;;;;14.40;12.20;;;;;;;11.03;100.00;93674.97;5068462;28;20435;-72
2022/10/11 02:43:30;;;;;;;15.35;12.27;;;;;;;11.01;100.00;93679.53;5068410;28;20045;-72
2022/10/11 02:46:00;;;;;;;13.90;11.70;;;;;;;10.97;100.00;93671.41;5067843;28;20098;-73
2022/10/11 02:48:29;;;;;;;15.38;12.25;;;;;;;10.91;100.00;93673.00;5068268;28;20418;-72
2022/10/11 02:50:57;;;;;;;16.35;11.93;;;;;;;10.89;100.00;93669.06;5068276;28;20127;-72
2022/10/11 02:53:25;;;;;;;16.95;14.00;;;;;;;10.85;100.00;93666.09;5067803;28;20573;-73
2022/10/11 02:55:53;;;;;;;18.13;13.60;;;;;;;10.83;100.00;93668.06;5067882;28;20102;-72
2022/10/11 02:58:21;;;;;;;15.68;11.88;;;;;;;10.69;100.00;93652.66;5068153;28;20048;-72
2022/10/11 03:00:48;;;;;;;14.45;12.60;;;;;;;10.73;100.00;93665.91;5068120;28;20056;-72
2022/10/11 03:03:15;;;;;;;15.60;12.38;;;;;;;10.72;100.00;93666.88;5068102;28;20040;-72
2022/10/11 03:05:43;;;;;;;14.13;12.63;;;;;;;10.72;100.00;93666.88;5068075;28;20052;-72
2022/10/11 03:08:12;;;;;;;14.00;12.45;;;;;;;10.67;100.00;93666.69;5068576;28;20052;-72
2022/10/11 03:10:40;;;;;;;16.92;12.45;;;;;;;10.65;100.00;93664.31;5071412;28;20041;-72
2022/10/11 03:13:07;;;;;;;15.60;13.90;;;;;;;10.63;100.00;93661.16;5071635;28;20052;-73
2022/10/11 03:15:34;;;;;;;14.68;13.18;;;;;;;10.59;100.00;93654.84;5071163;28;20041;-73
2022/10/11 03:18:01;;;;;;;16.40;12.38;;;;;;;10.60;100.00;93663.34;5071611;28;20040;-73
2022/10/11 03:20:28;;;;;;;14.63;12.02;;;;;;;10.58;100.00;93663.53;5071648;28;20049;-73
2022/10/11 03:22:56;;;;;;;14.82;12.25;;;;;;;10.59;100.00;93659.19;5071244;28;20450;-73
2022/10/11 03:25:22;;;;;;;14.68;11.90;;;;;;;10.58;100.00;93660.16;5071109;28;20496;-73
2022/10/11 03:27:49;;;;;;;14.75;12.75;;;;;;;10.35;100.00;93626.16;5070807;28;20090;-73
2022/10/11 03:30:16;;;;;;;15.85;12.82;;;;;;;10.52;100.00;93649.69;5071079;28;20091;-73
2022/10/11 03:32:43;;;;;;;14.25;12.07;;;;;;;10.50;100.00;93648.31;5060840;28;20119;-73
2022/10/11 03:35:10;;;;;;;14.05;12.48;;;;;;;10.49;100.00;93646.72;5050480;28;20040;-73
2022/10/11 03:37:37;;;;;;;15.52;12.57;;;;;;;10.59;100.00;93661.78;5051064;28;20037;-72
2022/10/11 03:40:07;;;;;;;16.80;13.90;;;;;;;10.59;100.00;93654.06;5050790;28;20056;-73
2022/10/11 03:42:34;;;;;;;18.35;14.18;;;;;;;10.56;100.00;93653.44;5051139;28;20413;-72
2022/10/11 03:45:03;;;;;;;19.42;16.38;;;;;;;10.61;100.00;93652.06;5050956;28;20420;-72
2022/10/11 03:47:30;;;;;;;19.52;16.10;;;;;;;10.63;100.00;93652.66;5050675;28;20428;-72
2022/10/11 03:49:57;;;;;;;18.67;15.45;;;;;;;10.64;100.00;93655.03;5050707;28;20505;-73
2022/10/11 03:52:24;;;;;;;17.05;15.25;;;;;;;10.58;100.00;93647.31;5050933;28;20860;-73
2022/10/11 03:54:51;;;;;;;19.05;15.57;;;;;;;10.67;100.00;93652.09;5050345;28;20087;-72
2022/10/11 03:57:19;;;;;;;18.10;15.95;;;;;;;10.72;100.00;93653.25;5050910;28;20041;-73
2022/10/11 03:59:46;;;;;;;19.42;15.60;;;;;;;10.71;100.00;93655.03;5050840;28;20045;-72
2022/10/11 04:02:13;;;;;;;20.50;16.90;;;;;;;10.74;100.00;93654.63;5050874;28;20087;-72
2022/10/11 04:04:40;;;;;;;20.75;15.98;;;;;;;10.52;100.00;93625.81;5050598;28;20570;-72
2022/10/11 04:07:25;;;;;;;21.45;16.25;;;;;;;10.72;100.00;93658.38;5050159;28;20444;-72
2022/10/11 04:09:52;;;;;;;20.42;15.13;;;;;;;10.69;100.00;93657.81;5069842;28;20044;-72
2022/10/11 04:12:20;;;;;;;20.83;15.88;;;;;;;10.67;100.00;93662.34;5070702;28;20109;-72
2022/10/11 04:14:47;;;;;;;18.65;14.52;;;;;;;10.63;100.00;93656.03;5070256;28;20051;-72
2022/10/11 04:17:14;;;;;;;21.08;16.00;;;;;;;10.64;100.00;93654.25;5070416;28;20109;-72
2022/10/11 04:19:40;;;;;;;20.77;16.20;;;;;;;10.69;100.00;93664.72;5070097;28;20056;-72
2022/10/11 04:22:08;;;;;;;21.38;15.32;;;;;;;10.69;100.00;93672.41;5070396;28;20110;-72
2022/10/11 04:24:34;;;;;;;23.60;16.83;;;;;;;10.71;100.00;93661.94;5070351;28;20109;-72
2022/10/11 04:27:01;;;;;;;20.77;16.60;;;;;;;10.64;100.00;93654.25;5070328;28;20459;-72
2022/10/11 04:29:29;;;;;;;21.58;16.58;;;;;;;10.49;100.00;93641.59;5070143;28;20884;-72
2022/10/11 04:31:56;;;;;;;25.73;17.58;;;;;;;10.45;100.00;93653.28;5070266;28;20194;-72
2022/10/11 04:34:23;;;;;;;24.00;16.20;;;;;;;10.37;100.00;93657.56;5069842;28;20550;-72
2022/10/11 04:36:49;;;;;;;22.58;16.90;;;;;;;10.43;100.00;93667.09;5069638;28;20044;-72
2022/10/11 04:39:16;;;;;;;23.63;16.63;;;;;;;10.47;100.00;93666.69;5070063;28;20106;-72
2022/10/11 04:41:43;;;;;;;28.05;17.88;;;;;;;10.45;100.00;93659.19;5070026;28;20048;-72
2022/10/11 04:44:10;;;;;;;24.73;16.35;;;;;;;10.48;100.00;93671.66;5069927;28;20151;-72
2022/10/11 04:46:38;;;;;;;22.52;16.90;;;;;;;10.47;100.00;93667.50;5069615;28;20049;-72
2022/10/11 04:49:05;;;;;;;23.92;18.10;;;;;;;10.46;100.00;93673.59;5069848;28;20389;-72
2022/10/11 04:51:32;;;;;;;24.38;17.85;;;;;;;10.35;100.00;93653.63;5069352;28;20044;-72
2022/10/11 04:53:59;;;;;;;27.58;20.55;;;;;;;10.40;100.00;93667.47;5069502;28;20040;-72
2022/10/11 04:56:26;;;;;;;26.63;19.42;;;;;;;10.44;100.00;93665.31;5069741;28;20094;-72
2022/10/11 04:58:53;;;;;;;31.73;20.48;;;;;;;10.47;100.00;93672.63;5069781;28;20439;-72
2022/10/11 05:01:20;;;;;;;26.35;18.98;;;;;;;10.51;100.00;93675.59;5069720;28;20052;-72
2022/10/11 05:03:48;;;;;;;24.48;18.83;;;;;;;10.53;100.00;93687.25;5069382;28;20074;-72
2022/10/11 05:06:15;;;;;;;36.22;19.88;;;;;;;10.58;100.00;93681.53;5069698;28;20430;-72
2022/10/11 05:08:42;;;;;;;25.58;18.92;;;;;;;10.60;100.00;93691.59;5069144;28;20090;-72
2022/10/11 05:11:12;;;;;;;33.55;20.30;;;;;;;10.64;100.00;93687.66;5069127;28;20455;-72
2022/10/11 05:13:39;;;;;;;27.00;19.65;;;;;;;10.68;100.00;93688.81;5069113;28;20044;-72
2022/10/11 05:16:06;;;;;;;28.80;20.77;;;;;;;10.74;100.00;93698.31;5069042;28;20091;-72
2022/10/11 05:18:34;;;;;;;28.90;21.05;;;;;;;10.77;100.00;93702.25;5069451;28;21193;-72
2022/10/11 05:21:05;;;;;;;27.05;20.85;;;;;;;10.74;100.00;93685.47;5068881;28;20058;-73
2022/10/11 05:23:33;;;;;;;28.05;20.05;;;;;;;10.65;100.00;93679.72;5069031;28;20055;-72
2022/10/11 05:26:00;;;;;;;34.42;23.20;;;;;;;10.39;100.00;93667.66;5069256;28;20051;-73
2022/10/11 05:28:28;;;;;;;33.00;22.58;;;;;;;10.49;100.00;93675.00;5069239;28;20044;-73
2022/10/11 05:30:55;;;;;;;32.50;22.42;;;;;;;10.38;100.00;93677.13;5069112;28;20056;-73
2022/10/11 05:33:22;;;;;;;31.20;21.75;;;;;;;10.43;100.00;93685.06;5069155;28;20072;-73
2022/10/11 05:35:49;;;;;;;28.23;20.55;;;;;;;10.51;100.00;93676.38;5068632;28;20048;-73
2022/10/11 05:38:17;;;;;;;27.42;20.63;;;;;;;10.66;100.00;93680.53;5048931;28;20049;-74
2022/10/11 05:40:44;;;;;;;25.63;18.65;;;;;;;10.76;100.00;93687.84;5048744;28;20095;-73
2022/10/11 05:43:11;;;;;;;28.13;19.45;;;;;;;10.78;100.00;93675.59;5049015;28;20103;-73
2022/10/11 05:45:38;;;;;;;25.70;18.85;;;;;;;10.51;100.00;93667.91;5048685;28;20098;-73
2022/10/11 05:48:06;;;;;;;24.50;18.95;;;;;;;10.70;100.00;93676.59;5049116;28;20049;-73
2022/10/11 05:50:33;;;;;;;25.00;17.95;;;;;;;10.76;100.00;93668.09;5048316;28;20102;-73
2022/10/11 05:53:00;;;;;;;24.45;18.55;;;;;;;10.86;100.00;93659.97;5053031;28;20044;-73
2022/10/11 05:55:29;;;;;;;22.95;17.92;;;;;;;10.88;100.00;93660.53;5065629;28;20098;-73
2022/10/11 05:57:57;;;;;;;25.65;19.42;;;;;;;10.96;100.00;93656.97;5067201;28;20048;-73
2022/10/11 06:00:24;;;;;;;23.77;18.42;;;;;;;11.03;100.00;93652.63;5067862;28;20098;-72
2022/10/11 06:02:51;;;;;;;26.92;18.33;;;;;;;11.05;100.00;93652.41;5068673;28;20044;-73
2022/10/11 06:05:18;;;;;;;24.27;17.80;;;;;;;11.18;100.00;93664.44;5068983;28;20288;-73
2022/10/11 06:07:44;;;;;;;23.23;17.77;;;;;;;11.32;100.00;93675.47;5068351;28;20048;-73
2022/10/11 06:10:12;;;;;;;25.85;17.92;;;;;;;11.36;100.00;93666.38;5068895;28;20044;-72
2022/10/11 06:12:40;;;;;;;23.30;18.23;;;;;;;11.50;100.00;93685.13;5068511;28;20052;-72
2022/10/11 06:15:09;;;;;;;22.88;17.05;;;;;;;11.60;100.00;93684.69;5068748;28;20040;-72
2022/10/11 06:17:36;;;;;;;21.40;17.25;;;;;;;11.70;100.00;93690.19;5068626;28;20489;-72
2022/10/11 06:20:03;;;;;;;28.08;17.75;;;;;;;11.64;100.00;93673.00;5068752;28;20548;-73
2022/10/11 06:22:30;;;;;;;27.65;18.48;;;;;;;11.88;100.00;93691.31;5068418;28;20367;-73
2022/10/11 06:24:57;;;;;;;28.45;19.52;;;;;;;11.93;100.00;93694.06;5068703;28;20041;-73
2022/10/11 06:27:24;;;;;;;29.67;19.88;;;;;;;11.95;100.00;93697.22;5068628;28;20137;-73
2022/10/11 06:29:52;;;;;;;32.15;20.10;;;;;;;11.97;100.00;93695.22;5068314;28;20559;-73
2022/10/11 06:32:18;;;;;;;27.48;19.55;;;;;;;11.99;100.00;93698.38;5068550;28;20098;-73
2022/10/11 06:34:45;;;;;;;31.45;22.15;;;;;;;11.90;100.00;93690.09;5068450;28;20106;-73
2022/10/11 06:37:12;;;;;;;31.60;21.35;;;;;;;11.99;100.00;93703.53;5068191;28;20185;-72
2022/10/11 06:39:39;;;;;;;31.70;22.63;;;;;;;12.06;100.00;93700.97;5068375;28;20086;-72
2022/10/11 06:42:05;;;;;;;32.33;20.70;;;;;;;12.12;100.00;93702.72;5068742;28;20048;-73
2022/10/11 06:44:32;;;;;;;28.80;20.95;;;;;;;12.10;100.00;93683.31;5071144;28;20053;-72
2022/10/11 06:47:00;;;;;;;28.77;21.45;;;;;;;12.22;100.00;93701.47;5072249;28;20508;-73
2022/10/11 06:49:27;;;;;;;30.38;21.02;;;;;;;12.23;100.00;93697.91;5072015;28;20045;-72
2022/10/11 06:51:54;;;;;;;28.35;20.17;;;;;;;12.32;100.00;93708.75;5065465;28;20045;-72
2022/10/11 06:54:20;;;;;;;29.65;20.52;;;;;;;12.43;100.00;93706.28;5065239;28;20562;-73
2022/10/11 06:56:47;;;;;;;28.42;20.38;;;;;;;12.50;100.00;93701.06;5071919;28;20550;-73
2022/10/11 06:59:14;;;;;;;27.30;20.23;;;;;;;12.59;100.00;93704.19;5072281;28;20048;-73
2022/10/11 07:01:41;;;;;;;26.17;19.77;;;;;;;12.63;100.00;93707.94;5072139;28;20053;-73
2022/10/11 07:04:09;;;;;;;25.40;18.58;;;;;;;12.78;100.00;93710.19;5072134;28;20048;-73
2022/10/11 07:06:38;;;;;;;26.45;17.42;;;;;;;12.92;100.00;93713.44;5071728;28;20048;-73
2022/10/11 07:09:05;;;;;;;25.55;17.90;;;;;;;13.02;100.00;93710.41;5071922;28;20550;-73
2022/10/11 07:11:33;;;;;;;23.83;16.73;;;;;;;13.12;100.00;93711.69;5071571;28;20412;-73
2022/10/11 07:14:01;;;;;;;23.70;16.95;;;;;;;13.23;100.00;93711.78;5072090;28;20101;-73
2022/10/11 07:16:28;;;;;;;26.27;18.45;;;;;;;13.25;100.00;93709.00;5071727;28;20447;-73
2022/10/11 07:18:57;;;;;;;26.25;18.23;;;;;;;13.35;100.00;93711.88;5071538;28;20044;-73
2022/10/11 07:21:25;;;;;;;26.23;17.02;;;;;;;13.50;100.00;93721.09;5071378;28;20044;-73
2022/10/11 07:23:52;;;;;;;26.80;18.75;;;;;;;13.55;100.00;93716.06;5071585;28;20094;-73
2022/10/11 07:26:19;;;;;;;22.27;17.08;;;;;;;13.75;100.00;93730.56;5071399;28;20049;-73
2022/10/11 07:28:47;;;;;;;27.02;17.50;;;;;;;13.84;100.00;93720.72;5071560;28;20172;-73
2022/10/11 07:31:16;;;;;;;30.35;18.35;;;;;;;13.89;100.00;93724.22;5071476;28;20114;-73
2022/10/11 07:33:43;;;;;;;31.55;19.20;;;;;;;13.87;100.00;93721.06;5071545;28;20794;-73
2022/10/11 07:36:10;;;;;;;34.55;20.58;;;;;;;13.86;100.00;93724.66;5071380;28;20048;-73
2022/10/11 07:38:40;;;;;;;33.40;18.50;;;;;;;13.83;100.00;93721.72;5071493;28;20052;-73
2022/10/11 07:41:08;;;;;;;42.63;21.75;;;;;;;13.95;100.00;93727.75;5071534;28;20047;-73
2022/10/11 07:43:35;;;;;;;39.15;20.60;;;;;;;13.82;100.00;93718.34;5071065;28;20059;-73
2022/10/11 07:46:02;;;;;;;38.33;20.33;;;;;;;13.92;100.00;93725.59;5071119;28;20094;-73
2022/10/11 07:48:30;;;;;;;38.95;20.42;;;;;;;14.01;100.00;93726.88;5070976;28;20056;-73
2022/10/11 07:51:02;;;;;;;39.47;21.98;;;;;;;14.11;100.00;93726.34;5071007;28;20128;-73
2022/10/11 07:53:29;;;;;;;39.85;19.02;;;;;;;14.25;100.00;93731.31;5071349;28;20459;-74
2022/10/11 07:56:01;;;;;;;36.90;20.23;;;;;;;14.37;100.00;93737.34;5071110;28;20306;-74
2022/10/11 07:58:28;;;;;;;36.35;19.52;;;;;;;14.49;100.00;93742.53;5063136;28;20044;-74
2022/10/11 08:00:55;;;;;;;40.20;19.33;;;;;;;14.62;100.00;93735.63;5070940;28;20052;-74
2022/10/11 08:03:21;;;;;;;39.65;21.33;;;;;;;14.74;100.00;93733.84;5070796;28;20485;-73
2022/10/11 08:05:50;;;;;;;47.30;23.80;;;;;;;14.84;100.00;93738.47;5067945;28;20864;-73
2022/10/11 08:08:17;;;;;;;49.45;24.58;;;;;;;14.95;100.00;93742.88;5071008;28;20411;-74
2022/10/11 08:10:44;;;;;;;53.60;25.42;;;;;;;15.08;100.00;93746.25;5070962;28;20094;-74
2022/10/11 08:13:13;;;;;;;62.20;29.92;;;;;;;15.15;100.00;93749.56;5070572;28;20041;-74
2022/10/11 08:15:40;;;;;;;53.45;25.45;;;;;;;15.23;100.00;93751.78;5070975;28;20045;-74
2022/10/11 08:18:06;;;;;;;49.72;24.02;;;;;;;15.30;100.00;93756.06;5070729;28;20047;-74
2022/10/11 08:20:33;;;;;;;47.95;26.15;;;;;;;15.35;100.00;93746.63;5070921;28;20533;-73
2022/10/11 08:23:00;;;;;;;51.03;24.10;;;;;;;15.42;100.00;93751.66;5070503;28;20499;-74
2022/10/11 08:25:27;;;;;;;45.40;21.95;;;;;;;15.49;100.00;93757.53;5070858;28;20048;-73
2022/10/11 08:27:55;;;;;;;37.00;21.10;;;;;;;15.53;100.00;93749.28;5070566;28;20048;-74
2022/10/11 08:30:23;;;;;;;33.15;19.30;;;;;;;15.64;100.00;93751.09;5070456;28;20041;-74
2022/10/11 08:32:49;;;;;;;30.83;18.67;;;;;;;15.71;100.00;93749.19;5070103;28;20048;-74
2022/10/11 08:35:16;;;;;;;37.75;19.67;;;;;;;15.74;100.00;93746.13;5070651;28;20048;-74
2022/10/11 08:37:43;;;;;;;36.25;20.30;;;;;;;15.30;100.00;93736.16;5070118;28;20447;-73
2022/10/11 08:40:15;;;;;;;35.65;18.85;;;;;;;15.38;100.00;93739.41;5070264;28;20048;-74
2022/10/11 08:42:46;;;;;;;36.55;19.63;;;;;;;15.36;100.00;93743.00;5070121;28;20500;-74
2022/10/11 08:45:27;;;;;;;28.88;18.23;;;;;;;15.14;100.00;93719.50;5070309;28;20118;-74
2022/10/11 08:48:04;;;;;;;29.60;18.35;;;;;;;15.09;100.00;93735.69;5070193;28;20052;-74
2022/10/11 08:50:31;;;;;;;34.25;20.15;;;;;;;15.19;100.00;93742.13;5069769;28;20090;-74
2022/10/11 08:53:03;;;;;;;34.00;18.70;;;;;;;15.17;100.00;93737.16;5070174;28;20049;-74
2022/10/11 08:55:38;;;;;;;31.48;18.80;;;;;;;15.27;100.00;93738.41;5070349;28;20443;-74
2022/10/11 08:58:05;;;;;;;27.98;17.35;;;;;;;15.44;100.00;93738.50;5069847;28;20041;-74
2022/10/11 09:00:37;;;;;;;26.77;16.52;;;;;;;15.67;100.00;93734.31;5069814;28;20109;-73
2022/10/11 09:03:23;;;;;;;24.95;14.65;;;;;;;15.90;100.00;93736.06;5070027;28;20060;-73
2022/10/11 09:06:01;;;;;;;26.77;15.32;;;;;;;15.08;100.00;93705.66;5069179;28;20098;-74
2022/10/11 09:08:39;;;;;;;23.58;15.27;;;;;;;15.28;100.00;93727.81;5069882;28;20086;-73
2022/10/11 09:11:13;;;;;;;23.98;14.80;;;;;;;15.49;100.00;93717.91;5069918;28;20157;-73
2022/10/11 09:14:13;;;;;;;21.38;14.35;;;;;;;15.67;100.00;93723.94;5069385;28;20041;-74
2022/10/11 09:16:54;;;;;;;27.60;15.95;;;;;;;15.93;100.00;93709.75;5065689;28;20052;-74
2022/10/11 09:19:36;;;;;;;30.67;15.48;;;;;;;16.13;100.00;93717.09;5069679;28;20040;-73
2022/10/11 09:22:14;;;;;;;26.15;15.38;;;;;;;16.20;100.00;93709.16;5069465;28;20060;-73
2022/10/11 09:24:57;;;;;;;22.98;14.13;;;;;;;16.46;100.00;93726.97;5066744;28;20040;-73
2022/10/11 09:27:30;;;;;;;25.92;17.05;;;;;;;16.15;100.00;93706.47;5069154;28;20060;-74
2022/10/11 09:30:02;;;;;;;25.58;15.98;;;;;;;15.96;100.00;93729.22;5069306;28;20090;-75
2022/10/11 09:32:34;;;;;;;24.75;14.80;;;;;;;16.30;100.00;93717.13;5067044;28;20563;-73
2022/10/11 09:35:10;;;;;;;21.27;13.55;;;;;;;16.75;100.00;93719.16;5059377;28;20094;-73
2022/10/11 09:37:45;;;;;;;26.83;14.50;;;;;;;17.15;100.00;93718.22;5053132;28;20587;-74
2022/10/11 09:40:23;;;;;;;18.35;12.27;;;;;;;17.58;99.43;93718.53;5064537;28;20455;-74
2022/10/11 09:42:50;;;;;;;21.50;13.27;;;;;;;17.83;95.87;93724.28;5069208;28;20045;-73
2022/10/11 09:45:20;;;;;;;20.52;12.43;;;;;;;18.06;91.40;93728.50;5069163;28;20041;-74
2022/10/11 09:47:49;;;;;;;22.58;14.32;;;;;;;17.79;90.84;93729.19;5069152;28;20110;-73
2022/10/11 09:50:18;;;;;;;24.70;13.85;;;;;;;17.90;91.13;93717.88;5068934;28;20549;-74
2022/10/11 09:52:49;;;;;;;20.27;13.25;;;;;;;18.23;93.45;93712.78;5068827;28;20044;-74
2022/10/11 09:55:31;;;;;;;18.48;11.88;;;;;;;18.44;91.76;93718.19;5057791;28;20513;-74
2022/10/11 09:57:58;;;;;;;18.80;11.43;;;;;;;18.49;89.82;93701.84;5053501;28;20478;-73
2022/10/11 10:00:26;;;;;;;18.75;11.90;;;;;;;18.70;88.63;93721.00;5057139;28;20551;-73
2022/10/11 10:02:56;;;;;;;23.15;12.10;;;;;;;18.85;88.54;93706.56;5058275;28;20044;-73
2022/10/11 10:05:24;;;;;;;18.40;10.88;;;;;;;18.92;86.86;93707.91;5069108;28;20052;-74
2022/10/11 10:07:59;;;;;;;18.35;10.32;;;;;;;19.06;87.10;93710.91;5068371;28;20500;-74
2022/10/11 10:10:28;;;;;;;;;;;;;;;19.18;86.50;93705.53;5066811;28;20048;-74
2022/10/11 10:12:57;;;;;;;16.83;9.38;;;;;;;19.11;84.05;93710.16;5066983;28;19924;-74
2022/10/11 10:15:28;;;;;;;14.80;9.60;;;;;;;18.77;82.75;93703.38;5068862;28;20047;-74
2022/10/11 10:17:57;;;;;;;15.82;10.15;;;;;;;18.45;87.21;93698.16;5070900;28;20080;-74
2022/10/11 10:20:26;;;;;;;16.13;10.32;;;;;;;18.42;83.85;93702.84;5072857;28;20048;-74
2022/10/11 10:22:53;;;;;;;17.08;9.75;;;;;;;18.49;86.23;93691.44;5073068;28;20094;-74
2022/10/11 10:25:26;;;;;;;13.98;8.45;;;;;;;18.73;86.63;93691.09;5073228;28;20044;-74
2022/10/11 10:27:57;;;;;;;16.83;8.02;;;;;;;18.88;86.49;93685.25;5072323;28;20136;-74
2022/10/11 10:30:25;;;;;;;11.00;8.30;;;;;;;19.16;82.16;93696.41;5069413;28;20044;-74
2022/10/11 10:32:58;;;;;;;12.70;7.28;;;;;;;19.33;84.58;93678.78;5070151;28;20044;-74
2022/10/11 10:35:39;;;;;;;18.35;10.20;;;;;;;19.26;80.70;93688.66;5066421;28;20052;-74
2022/10/11 10:38:12;;;;;;;13.88;9.52;;;;;;;19.20;84.79;93682.63;5072677;28;20064;-74
2022/10/11 10:40:45;;;;;;;16.20;10.57;;;;;;;18.99;85.13;93679.09;5072637;28;20386;-74
2022/10/11 10:43:28;;;;;;;15.23;9.32;;;;;;;18.50;84.82;93669.59;5071957;28;20090;-74
2022/10/11 10:46:09;;;;;;;19.98;11.07;;;;;;;18.28;88.58;93668.63;5058749;28;20062;-74
2022/10/11 10:48:44;;;;;;;19.38;12.07;;;;;;;17.91;91.74;93656.28;5067369;28;20049;-74
2022/10/11 10:51:21;;;;;;;17.85;11.50;;;;;;;17.72;92.22;93667.00;5072293;28;20045;-74
2022/10/11 10:53:58;;;;;;;18.10;10.85;;;;;;;17.83;92.02;93657.50;5071952;28;20551;-75
2022/10/11 10:56:42;;;;;;;16.30;9.50;;;;;;;17.63;91.78;93634.69;5072328;28;20052;-75
2022/10/11 10:59:32;;;;;;;13.75;9.82;;;;;;;17.83;92.21;93649.69;5072096;28;20048;-75
2022/10/11 11:02:03;;;;;;;15.65;10.43;;;;;;;17.85;90.75;93655.47;5072331;28;20053;-74
2022/10/11 11:04:33;;;;;;;17.15;10.55;;;;;;;17.85;92.28;93649.47;5071806;28;20044;-74
2022/10/11 11:07:08;;;;;;;14.63;9.57;;;;;;;17.61;92.87;93650.53;5071573;28;20059;-74
2022/10/11 11:09:47;;;;;;;16.92;10.52;;;;;;;17.85;92.41;93649.47;5072131;28;20097;-74
2022/10/11 11:12:38;;;;;;;13.57;8.73;;;;;;;18.00;89.97;93648.84;5072265;28;20040;-74
2022/10/11 11:15:11;;;;;;;14.98;9.18;;;;;;;17.93;91.22;93643.84;5072060;28;20094;-74
2022/10/11 11:17:50;;;;;;;18.52;10.75;;;;;;;18.03;91.84;93640.56;5071978;28;20045;-74
2022/10/11 11:20:31;;;;;;;20.23;11.15;;;;;;;18.20;92.66;93643.09;5071781;28;20044;-74
2022/10/11 11:23:06;;;;;;;15.32;9.80;;;;;;;18.18;91.18;93639.94;5058690;28;20188;-74
2022/10/11 11:25:43;;;;;;;16.17;9.85;;;;;;;17.91;90.92;93635.50;5071350;28;20489;-74